createdAt,value
2017-08-26T00:00:52.107Z,4.63
2017-08-26T00:03:18.728Z,5.80
2017-08-26T00:05:45.360Z,5.90
2017-08-26T00:08:11.977Z,5.37
2017-08-26T00:10:38.609Z,5.30
2017-08-26T00:13:05.231Z,8.20
2017-08-26T00:15:31.906Z,7.90
2017-08-26T00:17:58.502Z,8.73
2017-08-26T00:20:25.111Z,11.73
2017-08-26T00:22:51.746Z,13.00
2017-08-26T00:25:18.379Z,13.13
2017-08-26T00:27:45.015Z,7.73
2017-08-26T00:30:11.636Z,8.87
2017-08-26T00:32:38.267Z,7.40
2017-08-26T00:35:04.912Z,15.20
2017-08-26T00:37:31.515Z,8.20
2017-08-26T00:39:58.159Z,10.70
2017-08-26T00:42:24.797Z,10.87
2017-08-26T00:44:51.399Z,9.27
2017-08-26T00:47:18.039Z,7.60
2017-08-26T00:49:44.669Z,6.70
2017-08-26T00:52:11.303Z,9.63
2017-08-26T00:54:37.944Z,6.57
2017-08-26T00:57:04.563Z,8.97
2017-08-26T00:59:31.205Z,8.63
2017-08-26T01:01:57.834Z,10.87
2017-08-26T01:04:24.474Z,8.77
2017-08-26T01:06:51.110Z,7.47
2017-08-26T01:09:17.752Z,7.57
2017-08-26T01:11:44.391Z,7.67
2017-08-26T01:14:11.026Z,10.47
2017-08-26T01:16:37.667Z,13.87
2017-08-26T01:19:04.259Z,8.30
2017-08-26T01:21:30.895Z,7.47
2017-08-26T01:23:57.514Z,13.73
2017-08-26T01:26:24.154Z,8.47
2017-08-26T01:28:50.764Z,8.63
2017-08-26T01:31:17.371Z,8.97
2017-08-26T01:33:44.025Z,13.50
2017-08-26T01:36:10.663Z,8.53
2017-08-26T01:38:37.283Z,6.40
2017-08-26T01:41:03.925Z,6.70
2017-08-26T01:43:30.554Z,8.43
2017-08-26T01:45:57.179Z,7.10
2017-08-26T01:48:23.807Z,11.33
2017-08-26T01:50:50.422Z,7.90
2017-08-26T01:53:17.058Z,5.43
2017-08-26T01:55:43.666Z,8.10
2017-08-26T01:58:10.278Z,7.87
2017-08-26T02:00:36.900Z,6.87
2017-08-26T02:03:03.539Z,6.67
2017-08-26T02:05:30.149Z,7.53
2017-08-26T02:07:56.789Z,7.43
2017-08-26T02:10:23.398Z,7.13
2017-08-26T02:12:50.018Z,6.33
2017-08-26T02:15:16.657Z,8.87
2017-08-26T02:17:43.298Z,10.50
2017-08-26T02:20:09.926Z,10.93
2017-08-26T02:22:36.548Z,6.60
2017-08-26T02:25:03.188Z,6.77
2017-08-26T02:27:29.807Z,6.80
2017-08-26T02:29:56.429Z,8.83
2017-08-26T02:32:23.067Z,6.97
2017-08-26T02:34:49.688Z,6.93
2017-08-26T02:37:16.319Z,6.20
2017-08-26T02:39:42.923Z,6.83
2017-08-26T02:42:09.570Z,7.33
2017-08-26T02:44:36.208Z,9.93
2017-08-26T02:47:02.859Z,8.00
2017-08-26T02:49:29.482Z,6.60
2017-08-26T02:51:56.106Z,6.80
2017-08-26T02:54:22.746Z,6.20
2017-08-26T02:56:49.356Z,12.40
2017-08-26T02:59:15.988Z,7.00
2017-08-26T03:01:42.595Z,7.87
2017-08-26T03:04:09.222Z,10.80
2017-08-26T03:06:35.839Z,7.93
2017-08-26T03:09:02.453Z,8.67
2017-08-26T03:11:29.094Z,6.60
2017-08-26T03:13:55.731Z,5.83
2017-08-26T03:16:22.371Z,9.47
2017-08-26T03:18:48.983Z,6.10
2017-08-26T03:21:15.634Z,10.03
2017-08-26T03:23:42.250Z,8.53
2017-08-26T03:26:08.890Z,8.83
2017-08-26T03:28:35.510Z,8.30
2017-08-26T03:31:02.154Z,12.10
2017-08-26T03:33:28.792Z,6.13
2017-08-26T03:35:55.414Z,8.63
2017-08-26T03:38:22.032Z,12.07
2017-08-26T03:40:48.670Z,7.33
2017-08-26T03:43:15.290Z,7.00
2017-08-26T03:45:41.935Z,12.70
2017-08-26T03:48:08.564Z,9.30
2017-08-26T03:50:35.182Z,7.20
2017-08-26T03:53:01.791Z,7.13
2017-08-26T03:55:28.419Z,10.90
2017-08-26T03:57:55.078Z,6.97
2017-08-26T04:00:21.702Z,8.63
2017-08-26T04:02:48.356Z,16.20
2017-08-26T04:05:14.962Z,8.27
2017-08-26T04:07:41.610Z,11.77
2017-08-26T04:10:08.230Z,9.50
2017-08-26T04:12:34.831Z,8.00
2017-08-26T04:15:01.490Z,12.77
2017-08-26T04:17:28.099Z,9.40
2017-08-26T04:19:54.707Z,7.30
2017-08-26T04:22:21.367Z,15.83
2017-08-26T04:24:47.991Z,8.60
2017-08-26T04:27:14.622Z,10.17
2017-08-26T04:29:41.230Z,9.13
2017-08-26T04:32:07.858Z,8.33
2017-08-26T04:34:34.503Z,9.13
2017-08-26T04:37:01.113Z,9.57
2017-08-26T04:39:27.735Z,7.93
2017-08-26T04:41:54.367Z,7.97
2017-08-26T04:44:20.978Z,10.83
2017-08-26T04:46:47.619Z,10.27
2017-08-26T04:49:14.267Z,12.57
2017-08-26T04:51:40.862Z,11.90
2017-08-26T04:54:07.475Z,14.43
2017-08-26T04:56:34.109Z,14.80
2017-08-26T04:59:00.753Z,9.77
2017-08-26T05:01:27.384Z,10.97
2017-08-26T05:03:53.999Z,14.07
2017-08-26T05:06:20.634Z,11.23
2017-08-26T05:08:47.255Z,10.67
2017-08-26T05:11:13.897Z,14.83
2017-08-26T05:13:40.505Z,10.80
2017-08-26T05:16:07.137Z,9.07
2017-08-26T05:18:33.787Z,8.63
2017-08-26T05:21:00.424Z,9.57
2017-08-26T05:23:27.066Z,8.60
2017-08-26T05:25:53.695Z,9.70
2017-08-26T05:28:20.318Z,11.30
2017-08-26T05:30:46.958Z,12.13
2017-08-26T05:33:13.607Z,13.73
2017-08-26T05:35:40.237Z,20.37
2017-08-26T05:38:06.850Z,12.37
2017-08-26T05:40:33.474Z,9.67
2017-08-26T05:43:00.118Z,11.90
2017-08-26T05:45:26.754Z,15.30
2017-08-26T05:47:53.403Z,10.40
2017-08-26T05:50:20.019Z,10.70
2017-08-26T05:52:46.628Z,9.57
2017-08-26T05:55:13.259Z,10.17
2017-08-26T05:57:39.869Z,8.53
2017-08-26T06:00:06.502Z,9.47
2017-08-26T06:02:33.132Z,15.23
2017-08-26T06:04:59.771Z,10.63
2017-08-26T06:07:26.422Z,12.20
2017-08-26T06:09:53.075Z,15.93
2017-08-26T06:12:19.728Z,18.27
2017-08-26T06:14:46.355Z,15.80
2017-08-26T06:17:13.019Z,12.80
2017-08-26T06:19:39.635Z,12.23
2017-08-26T06:22:06.299Z,10.20
2017-08-26T06:24:32.902Z,25.87
2017-08-26T06:26:59.540Z,33.97
2017-08-26T06:29:26.171Z,38.03
2017-08-26T06:31:52.804Z,28.80
2017-08-26T06:34:19.458Z,27.23
2017-08-26T06:36:46.095Z,25.27
2017-08-26T06:39:12.726Z,28.97
2017-08-26T06:41:39.346Z,40.63
2017-08-26T06:44:06.003Z,28.63
2017-08-26T06:46:32.646Z,53.27
2017-08-26T06:48:59.275Z,44.40
2017-08-26T06:51:25.961Z,40.13
2017-08-26T06:53:52.619Z,42.63
2017-08-26T06:56:19.262Z,38.70
2017-08-26T06:58:45.880Z,35.33
2017-08-26T07:01:12.535Z,37.73
2017-08-26T07:03:39.139Z,30.60
2017-08-26T07:06:05.775Z,39.17
2017-08-26T07:08:32.414Z,34.47
2017-08-26T07:10:59.066Z,31.23
2017-08-26T07:13:25.680Z,28.37
2017-08-26T07:15:52.311Z,32.40
2017-08-26T07:18:18.931Z,41.40
2017-08-26T07:20:46.499Z,48.23
2017-08-26T07:23:13.130Z,51.50
2017-08-26T07:25:39.755Z,52.87
2017-08-26T07:28:06.398Z,48.10
2017-08-26T07:30:33.024Z,49.70
2017-08-26T07:32:59.653Z,37.93
2017-08-26T07:35:26.307Z,41.53
2017-08-26T07:37:52.955Z,45.63
2017-08-26T07:40:19.617Z,41.17
2017-08-26T07:42:46.242Z,38.27
2017-08-26T07:45:12.899Z,41.30
2017-08-26T07:47:39.535Z,43.60
2017-08-26T07:50:06.155Z,42.80
2017-08-26T07:52:32.842Z,43.80
2017-08-26T07:54:59.471Z,48.20
2017-08-26T07:57:26.094Z,49.20
2017-08-26T07:59:52.742Z,46.20
2017-08-26T08:02:19.359Z,41.73
2017-08-26T08:04:46.020Z,44.03
2017-08-26T08:07:12.647Z,39.37
2017-08-26T08:09:39.263Z,40.40
2017-08-26T08:12:05.910Z,45.40
2017-08-26T08:14:32.543Z,48.73
2017-08-26T08:16:59.156Z,41.40
2017-08-26T08:19:25.796Z,44.10
2017-08-26T08:21:52.437Z,46.00
2017-08-26T08:24:19.090Z,45.30
2017-08-26T08:26:45.708Z,42.73
2017-08-26T08:29:12.328Z,47.47
2017-08-26T08:31:38.986Z,55.70
2017-08-26T08:34:05.622Z,51.10
2017-08-26T08:36:32.262Z,51.50
2017-08-26T08:38:58.891Z,50.00
2017-08-26T08:41:25.522Z,52.33
2017-08-26T08:43:52.167Z,47.37
2017-08-26T08:46:18.812Z,49.90
2017-08-26T08:48:45.468Z,53.20
2017-08-26T08:51:12.083Z,49.63
2017-08-26T08:53:38.719Z,52.53
2017-08-26T08:56:05.351Z,50.33
2017-08-26T08:58:31.981Z,47.17
2017-08-26T09:00:58.615Z,53.73
2017-08-26T09:03:25.287Z,50.23
2017-08-26T09:05:51.913Z,48.47
2017-08-26T09:08:18.550Z,66.73
2017-08-26T09:10:45.202Z,62.20
2017-08-26T09:13:11.842Z,59.37
2017-08-26T09:15:38.485Z,67.50
2017-08-26T09:18:05.131Z,62.87
2017-08-26T09:20:31.746Z,61.87
2017-08-26T09:22:58.371Z,58.10
2017-08-26T09:25:24.992Z,55.27
2017-08-26T09:27:51.629Z,58.03
2017-08-26T09:30:18.263Z,50.40
2017-08-26T09:32:44.895Z,58.27
2017-08-26T09:35:11.519Z,55.63
2017-08-26T09:37:38.172Z,60.97
2017-08-26T09:40:04.814Z,53.50
2017-08-26T09:42:31.436Z,53.83
2017-08-26T09:44:58.091Z,56.00
2017-08-26T09:47:24.711Z,49.53
2017-08-26T09:49:51.366Z,51.70
2017-08-26T09:52:18.016Z,54.73
2017-08-26T09:54:44.639Z,58.00
2017-08-26T09:57:11.256Z,51.97
2017-08-26T09:59:37.881Z,54.67
2017-08-26T10:02:04.527Z,56.20
2017-08-26T10:04:31.164Z,57.00
2017-08-26T10:06:57.799Z,54.03
2017-08-26T10:09:24.460Z,52.50
2017-08-26T10:11:51.102Z,60.73
2017-08-26T10:14:17.753Z,56.97
2017-08-26T10:16:44.374Z,63.40
2017-08-26T10:19:11.611Z,53.80
2017-08-26T10:21:38.247Z,57.77
2017-08-26T10:24:04.888Z,45.07
2017-08-26T10:26:31.511Z,54.20
2017-08-26T10:28:58.166Z,51.97
2017-08-26T10:31:24.835Z,51.53
2017-08-26T10:33:51.485Z,59.17
2017-08-26T10:36:18.126Z,62.93
2017-08-26T10:38:44.771Z,62.40
2017-08-26T10:41:11.422Z,58.43
2017-08-26T10:43:38.060Z,51.50
2017-08-26T10:46:04.727Z,47.90
2017-08-26T10:48:31.348Z,50.47
2017-08-26T10:50:57.995Z,46.87
2017-08-26T10:53:24.619Z,53.87
2017-08-26T10:55:51.255Z,51.73
2017-08-26T10:58:17.917Z,64.10
2017-08-26T11:00:44.543Z,58.77
2017-08-26T11:03:11.183Z,59.70
2017-08-26T11:05:37.816Z,59.60
2017-08-26T11:08:04.440Z,54.97
2017-08-26T11:10:31.072Z,53.93
2017-08-26T11:12:57.706Z,55.00
2017-08-26T11:15:24.333Z,53.40
2017-08-26T11:17:50.955Z,62.20
2017-08-26T11:20:17.607Z,60.73
2017-08-26T11:22:44.256Z,63.97
2017-08-26T11:25:10.910Z,56.23
2017-08-26T11:27:37.542Z,53.50
2017-08-26T11:30:04.180Z,63.83
2017-08-26T11:32:30.807Z,60.70
2017-08-26T11:34:57.446Z,63.13
2017-08-26T11:37:24.083Z,63.67
2017-08-26T11:39:50.718Z,54.63
2017-08-26T11:42:17.379Z,63.73
2017-08-26T11:44:44.042Z,53.97
2017-08-26T11:47:10.659Z,60.53
2017-08-26T11:49:37.313Z,52.77
2017-08-26T11:52:03.981Z,48.80
2017-08-26T11:54:30.623Z,44.97
2017-08-26T11:56:57.252Z,36.97
2017-08-26T11:59:23.876Z,55.30
2017-08-26T12:01:50.511Z,46.53
2017-08-26T12:04:17.139Z,41.30
2017-08-26T12:06:43.817Z,41.90
2017-08-26T12:09:10.699Z,44.80
2017-08-26T12:11:37.309Z,46.20
2017-08-26T12:14:03.968Z,45.70
2017-08-26T12:16:30.576Z,49.90
2017-08-26T12:18:57.215Z,42.47
2017-08-26T12:21:23.852Z,45.07
2017-08-26T12:23:50.493Z,41.07
2017-08-26T12:26:17.134Z,32.23
2017-08-26T12:28:43.795Z,31.27
2017-08-26T12:31:10.407Z,25.73
2017-08-26T12:33:37.054Z,28.20
2017-08-26T12:36:03.706Z,32.17
2017-08-26T12:38:30.327Z,36.53
2017-08-26T12:40:56.982Z,32.30
2017-08-26T12:43:23.619Z,36.77
2017-08-26T12:45:50.235Z,32.13
2017-08-26T12:48:16.878Z,21.87
2017-08-26T12:50:43.514Z,28.57
2017-08-26T12:53:10.180Z,20.10
2017-08-26T12:55:36.799Z,18.30
2017-08-26T12:58:03.460Z,22.80
2017-08-26T13:00:30.102Z,22.93
2017-08-26T13:02:56.753Z,23.70
2017-08-26T13:05:23.397Z,20.10
2017-08-26T13:07:50.019Z,28.13
2017-08-26T13:10:16.661Z,21.77
2017-08-26T13:12:43.274Z,22.83
2017-08-26T13:15:09.955Z,21.53
2017-08-26T13:17:36.704Z,23.57
2017-08-26T13:20:03.380Z,26.27
2017-08-26T13:22:30.035Z,19.00
2017-08-26T13:24:56.675Z,18.93
2017-08-26T13:27:23.330Z,19.13
2017-08-26T13:29:49.972Z,23.17
2017-08-26T13:32:16.619Z,20.90
2017-08-26T13:34:43.246Z,21.80
2017-08-26T13:37:09.886Z,21.27
2017-08-26T13:39:36.530Z,17.37
2017-08-26T13:42:03.145Z,17.20
2017-08-26T13:44:29.797Z,15.57
2017-08-26T13:46:56.444Z,14.07
2017-08-26T13:49:23.087Z,11.70
2017-08-26T13:51:49.738Z,13.37
2017-08-26T13:54:16.402Z,10.30
2017-08-26T13:56:43.010Z,12.87
2017-08-26T13:59:09.630Z,13.47
2017-08-26T14:01:36.270Z,14.43
2017-08-26T14:04:02.911Z,11.00
2017-08-26T14:06:29.564Z,13.70
2017-08-26T14:08:56.208Z,17.10
2017-08-26T14:11:22.836Z,19.40
2017-08-26T14:13:49.484Z,12.70
2017-08-26T14:16:16.099Z,17.20
2017-08-26T14:18:42.751Z,20.23
2017-08-26T14:21:09.372Z,14.90
2017-08-26T14:23:36.001Z,19.20
2017-08-26T14:26:02.638Z,18.37
2017-08-26T14:28:29.279Z,14.60
2017-08-26T14:30:55.933Z,21.67
2017-08-26T14:33:22.559Z,16.50
2017-08-26T14:35:49.188Z,18.53
2017-08-26T14:38:15.825Z,22.97
2017-08-26T14:40:42.466Z,19.83
2017-08-26T14:43:09.083Z,29.47
2017-08-26T14:45:35.695Z,18.87
2017-08-26T14:48:02.341Z,13.40
2017-08-26T14:50:28.980Z,20.47
2017-08-26T14:52:55.606Z,16.93
2017-08-26T14:55:22.238Z,14.20
2017-08-26T14:57:48.871Z,10.40
2017-08-26T15:00:15.503Z,11.13
2017-08-26T15:02:42.138Z,10.73
2017-08-26T15:05:08.784Z,16.67
2017-08-26T15:07:35.430Z,25.17
2017-08-26T15:10:02.079Z,17.40
2017-08-26T15:12:28.725Z,17.73
2017-08-26T15:14:55.382Z,21.07
2017-08-26T15:17:22.010Z,25.60
2017-08-26T15:19:48.649Z,16.83
2017-08-26T15:22:15.287Z,17.27
2017-08-26T15:24:41.931Z,17.67
2017-08-26T15:27:08.555Z,15.03
2017-08-26T15:29:35.214Z,19.47
2017-08-26T15:32:01.867Z,29.03
2017-08-26T15:34:28.498Z,32.03
2017-08-26T15:36:55.151Z,23.30
2017-08-26T15:39:21.769Z,20.13
2017-08-26T15:41:48.410Z,19.60
2017-08-26T15:44:15.033Z,17.23
2017-08-26T15:46:41.667Z,26.97
2017-08-26T15:49:08.356Z,11.60
2017-08-26T15:51:34.971Z,16.33
2017-08-26T15:54:01.620Z,19.70
2017-08-26T15:56:28.249Z,16.57
2017-08-26T15:58:54.895Z,18.20
2017-08-26T16:01:21.548Z,16.53
2017-08-26T16:03:48.167Z,15.13
2017-08-26T16:06:14.826Z,16.03
2017-08-26T16:08:41.446Z,20.33
2017-08-26T16:11:08.112Z,13.00
2017-08-26T16:13:34.731Z,15.07
2017-08-26T16:16:01.358Z,23.80
2017-08-26T16:18:28.042Z,15.70
2017-08-26T16:20:54.679Z,20.30
2017-08-26T16:23:21.326Z,25.73
2017-08-26T16:25:47.962Z,28.90
2017-08-26T16:28:14.574Z,28.87
2017-08-26T16:30:41.210Z,20.30
2017-08-26T16:33:07.827Z,20.50
2017-08-26T16:35:34.468Z,19.33
2017-08-26T16:38:01.120Z,19.60
2017-08-26T16:40:27.750Z,24.47
2017-08-26T16:42:54.395Z,14.20
2017-08-26T16:45:21.023Z,15.87
2017-08-26T16:47:47.668Z,13.03
2017-08-26T16:50:14.306Z,17.30
2017-08-26T16:52:40.939Z,22.40
2017-08-26T16:55:07.572Z,20.73
2017-08-26T16:57:34.215Z,13.97
2017-08-26T17:00:00.859Z,13.30
2017-08-26T17:02:27.488Z,19.23
2017-08-26T17:04:54.110Z,21.57
2017-08-26T17:07:20.767Z,15.93
2017-08-26T17:09:47.463Z,19.60
2017-08-26T17:12:14.111Z,14.53
2017-08-26T17:14:40.750Z,16.33
2017-08-26T17:17:07.395Z,19.03
2017-08-26T17:19:34.029Z,14.70
2017-08-26T17:22:00.650Z,12.67
2017-08-26T17:24:27.291Z,12.93
2017-08-26T17:26:53.952Z,13.10
2017-08-26T17:29:20.586Z,12.93
2017-08-26T17:31:47.220Z,10.00
2017-08-26T17:34:13.862Z,11.57
2017-08-26T17:36:40.499Z,12.60
2017-08-26T17:39:07.169Z,14.23
2017-08-26T17:41:33.774Z,10.33
2017-08-26T17:44:00.395Z,11.13
2017-08-26T17:46:27.022Z,12.83
2017-08-26T17:48:53.651Z,11.53
2017-08-26T17:51:20.292Z,11.57
2017-08-26T17:53:46.938Z,17.33
2017-08-26T17:56:13.620Z,11.07
2017-08-26T17:58:40.245Z,10.37
2017-08-26T18:01:06.994Z,20.50
2017-08-26T18:03:34.479Z,13.67
2017-08-26T18:06:01.126Z,17.10
2017-08-26T18:08:27.757Z,25.10
2017-08-26T18:10:54.389Z,12.23
2017-08-26T18:13:21.014Z,15.10
2017-08-26T18:15:47.645Z,13.33
2017-08-26T18:18:14.278Z,14.40
2017-08-26T18:20:40.930Z,10.90
2017-08-26T18:23:07.551Z,13.43
2017-08-26T18:25:34.208Z,11.97
2017-08-26T18:28:03.622Z,16.50
2017-08-26T18:30:30.234Z,11.33
2017-08-26T18:32:56.884Z,13.90
2017-08-26T18:35:23.492Z,15.30
2017-08-26T18:37:50.131Z,13.57
2017-08-26T18:40:16.742Z,11.20
2017-08-26T18:42:43.394Z,12.47
2017-08-26T18:45:10.042Z,15.87
2017-08-26T18:47:36.653Z,11.20
2017-08-26T18:50:03.310Z,11.40
2017-08-26T18:52:29.965Z,10.67
2017-08-26T18:54:56.638Z,13.77
2017-08-26T18:57:23.297Z,14.83
2017-08-26T18:59:49.967Z,12.17
2017-08-26T19:02:16.628Z,16.20
2017-08-26T19:04:43.244Z,12.83
2017-08-26T19:07:09.878Z,18.70
2017-08-26T19:09:36.507Z,17.63
2017-08-26T19:12:03.155Z,21.27
2017-08-26T19:14:29.795Z,20.30
2017-08-26T19:16:56.435Z,12.30
2017-08-26T19:19:23.076Z,15.53
2017-08-26T19:21:49.733Z,12.63
2017-08-26T19:24:16.367Z,12.50
2017-08-26T19:26:43.011Z,19.77
2017-08-26T19:29:09.640Z,17.00
2017-08-26T19:31:36.279Z,16.87
2017-08-26T19:34:02.914Z,15.40
2017-08-26T19:36:29.560Z,16.60
2017-08-26T19:38:56.198Z,20.67
2017-08-26T19:41:22.852Z,13.47
2017-08-26T19:43:49.471Z,15.73
2017-08-26T19:46:16.135Z,14.80
2017-08-26T19:48:42.775Z,15.07
2017-08-26T19:51:09.418Z,17.13
2017-08-26T19:53:36.064Z,16.17
2017-08-26T19:56:02.704Z,15.83
2017-08-26T19:58:29.382Z,15.23
2017-08-26T20:00:56.048Z,15.60
2017-08-26T20:03:22.670Z,18.43
2017-08-26T20:05:49.327Z,16.00
2017-08-26T20:08:15.944Z,19.50
2017-08-26T20:10:42.589Z,21.83
2017-08-26T20:13:09.249Z,15.13
2017-08-26T20:15:35.873Z,13.93
2017-08-26T20:18:02.510Z,19.77
2017-08-26T20:20:29.178Z,17.10
2017-08-26T20:22:55.856Z,19.13
2017-08-26T20:25:22.492Z,17.60
2017-08-26T20:27:49.116Z,20.83
2017-08-26T20:30:15.734Z,20.07
2017-08-26T20:32:42.376Z,24.10
2017-08-26T20:35:09.005Z,20.60
2017-08-26T20:37:35.691Z,24.37
2017-08-26T20:40:02.315Z,23.60
2017-08-26T20:42:28.959Z,23.80
2017-08-26T20:44:55.879Z,22.27
2017-08-26T20:47:22.595Z,24.47
2017-08-26T20:49:49.249Z,22.93
2017-08-26T20:52:15.890Z,28.40
2017-08-26T20:54:42.551Z,25.53
2017-08-26T20:57:09.215Z,21.23
2017-08-26T20:59:37.728Z,22.33
2017-08-26T21:02:04.388Z,24.83
2017-08-26T21:04:31.064Z,22.57
2017-08-26T21:06:57.695Z,21.70
2017-08-26T21:09:24.326Z,21.57
2017-08-26T21:11:51.002Z,28.00
2017-08-26T21:14:17.644Z,22.17
2017-08-26T21:16:44.265Z,23.53
2017-08-26T21:19:11.485Z,23.27
2017-08-26T21:21:38.122Z,21.53
2017-08-26T21:24:04.763Z,24.27
2017-08-26T21:26:31.464Z,20.27
2017-08-26T21:28:58.091Z,24.07
2017-08-26T21:31:24.712Z,23.00
2017-08-26T21:33:51.395Z,25.00
2017-08-26T21:36:18.020Z,24.50
2017-08-26T21:38:44.682Z,26.57
2017-08-26T21:41:11.327Z,21.77
2017-08-26T21:43:37.968Z,23.33
2017-08-26T21:46:04.580Z,26.00
2017-08-26T21:48:31.211Z,22.23
2017-08-26T21:50:57.834Z,19.40
2017-08-26T21:53:24.509Z,24.63
2017-08-26T21:55:51.131Z,20.10
2017-08-26T21:58:17.769Z,20.07
2017-08-26T22:00:44.402Z,33.00
2017-08-26T22:03:11.031Z,21.80
2017-08-26T22:05:37.684Z,26.33
2017-08-26T22:08:04.307Z,22.30
2017-08-26T22:10:30.933Z,19.40
2017-08-26T22:12:57.558Z,21.80
2017-08-26T22:15:24.187Z,18.43
2017-08-26T22:17:50.804Z,20.77
2017-08-26T22:20:17.441Z,21.30
2017-08-26T22:22:44.083Z,23.00
2017-08-26T22:25:10.707Z,21.50
2017-08-26T22:27:37.360Z,21.97
2017-08-26T22:30:03.979Z,25.53
2017-08-26T22:32:30.618Z,20.40
2017-08-26T22:34:57.265Z,22.70
2017-08-26T22:37:23.923Z,23.03
2017-08-26T22:39:50.572Z,24.13
2017-08-26T22:42:17.220Z,22.90
2017-08-26T22:44:43.870Z,20.50
2017-08-26T22:47:10.518Z,26.80
2017-08-26T22:49:37.142Z,22.63
2017-08-26T22:52:03.805Z,29.20
2017-08-26T22:54:30.412Z,21.23
2017-08-26T22:56:57.038Z,25.30
2017-08-26T22:59:23.675Z,25.10
2017-08-26T23:01:50.294Z,26.20
2017-08-26T23:04:16.928Z,22.03
2017-08-26T23:06:43.559Z,24.40
2017-08-26T23:09:10.187Z,20.97
2017-08-26T23:11:36.848Z,21.70
2017-08-26T23:14:03.466Z,21.30
2017-08-26T23:16:30.134Z,19.87
2017-08-26T23:18:56.783Z,22.83
2017-08-26T23:21:23.439Z,21.80
2017-08-26T23:23:50.076Z,19.80
2017-08-26T23:26:16.704Z,28.13
2017-08-26T23:28:43.319Z,21.90
2017-08-26T23:31:09.977Z,22.80
2017-08-26T23:33:36.601Z,22.83
2017-08-26T23:36:03.255Z,24.70
2017-08-26T23:38:29.891Z,23.33
2017-08-26T23:40:56.516Z,21.33
2017-08-26T23:43:23.185Z,20.30
2017-08-26T23:45:49.817Z,22.30
2017-08-26T23:48:16.464Z,20.20
2017-08-26T23:50:43.084Z,22.13
2017-08-26T23:53:09.726Z,21.37
2017-08-26T23:55:36.355Z,26.37
2017-08-26T23:58:02.998Z,24.73
